createdAt,value
2022-09-25T08:36:25.158Z,94.10
2022-09-25T08:38:58.562Z,93.40
2022-09-25T08:41:32.905Z,93.50
2022-09-25T08:44:37.467Z,93.40
2022-09-25T08:47:44.066Z,93.40
2022-09-25T08:50:22.327Z,93.40
2022-09-25T08:53:04.578Z,93.60
2022-09-25T08:55:53.712Z,93.30
2022-09-25T08:58:26.634Z,93.40
2022-09-25T09:00:55.847Z,93.20
2022-09-25T09:03:25.638Z,93.40
2022-09-25T09:06:04.689Z,93.20
2022-09-25T09:08:36.297Z,93.20
2022-09-25T09:11:17.967Z,93.00
2022-09-25T09:14:13.085Z,93.10
2022-09-25T09:16:54.493Z,93.00
2022-09-25T09:19:21.469Z,92.90
2022-09-25T09:22:06.303Z,92.50
2022-09-25T09:24:57.827Z,92.60
2022-09-25T09:27:36.996Z,92.50
2022-09-25T09:30:20.795Z,92.20
2022-09-25T09:33:04.150Z,91.60
2022-09-25T09:35:39.406Z,89.30
2022-09-25T09:38:28.338Z,90.10
2022-09-25T09:41:35.162Z,90.00
2022-09-25T09:44:39.322Z,87.40
2022-09-25T09:47:27.553Z,88.10
2022-09-25T09:50:06.888Z,88.90
2022-09-25T09:52:38.552Z,90.00
2022-09-25T09:55:34.488Z,87.70
2022-09-25T09:58:06.781Z,88.60
2022-09-25T10:00:34.834Z,87.10
2022-09-25T10:03:17.264Z,85.40
2022-09-25T10:05:49.777Z,86.70
2022-09-25T10:08:17.317Z,85.50
2022-09-25T10:10:55.014Z,85.20
2022-09-25T10:13:34.251Z,84.70
2022-09-25T10:16:14.619Z,86.60
2022-09-25T10:19:12.208Z,88.10
2022-09-25T10:21:45.010Z,88.40
2022-09-25T10:24:51.318Z,86.20
2022-09-25T10:27:31.330Z,86.90
2022-09-25T10:30:01.831Z,84.80
2022-09-25T10:32:29.811Z,85.70
2022-09-25T10:34:56.801Z,85.40
2022-09-25T10:37:34.737Z,85.30
2022-09-25T10:40:07.541Z,85.20
2022-09-25T10:42:42.269Z,83.70
2022-09-25T10:45:30.872Z,85.00
2022-09-25T10:48:16.673Z,84.00
2022-09-25T10:51:08.745Z,85.10
2022-09-25T10:53:35.669Z,83.70
2022-09-25T10:56:14.237Z,84.00
2022-09-25T10:58:50.676Z,82.10
2022-09-25T11:01:18.307Z,82.80
2022-09-25T11:03:59.522Z,84.50
2022-09-25T11:06:28.608Z,83.40
2022-09-25T11:09:12.202Z,83.10
2022-09-25T11:11:41.003Z,80.70
2022-09-25T11:14:32.548Z,81.10
2022-09-25T11:17:01.302Z,81.40
2022-09-25T11:19:31.017Z,81.40
2022-09-25T11:22:19.420Z,82.00
2022-09-25T11:25:13.492Z,81.80
2022-09-25T11:28:32.032Z,80.40
2022-09-25T11:31:21.600Z,81.60
2022-09-25T11:34:00.677Z,81.90
2022-09-25T11:36:41.423Z,84.80
2022-09-25T11:39:50.055Z,84.40
2022-09-25T11:42:38.981Z,84.70
2022-09-25T11:45:30.488Z,84.20
2022-09-25T11:48:05.330Z,83.20
2022-09-25T11:51:00.396Z,82.00
2022-09-25T11:53:45.665Z,83.50
2022-09-25T11:56:27.664Z,83.10
2022-09-25T11:59:13.483Z,80.30
2022-09-25T12:01:56.341Z,80.90
2022-09-25T12:04:32.444Z,81.20
2022-09-25T12:06:59.165Z,82.30
2022-09-25T12:09:42.552Z,81.80
2022-09-25T12:12:33.097Z,80.20
2022-09-25T12:15:20.381Z,81.70
2022-09-25T12:18:37.743Z,82.50
2022-09-25T12:21:07.179Z,85.10
2022-09-25T12:23:48.237Z,81.60
2022-09-25T12:26:32.762Z,80.90
2022-09-25T12:29:35.648Z,82.50
2022-09-25T12:32:05.402Z,82.10
2022-09-25T12:34:44.003Z,80.80
2022-09-25T12:37:43.416Z,80.60
2022-09-25T12:40:31.466Z,81.80
2022-09-25T12:43:03.865Z,81.70
2022-09-25T12:45:56.698Z,80.30
2022-09-25T12:48:35.050Z,81.40
2022-09-25T12:51:05.703Z,81.30
2022-09-25T12:53:43.237Z,79.80
2022-09-25T12:56:22.021Z,79.30
2022-09-25T12:59:06.382Z,78.90
2022-09-25T13:01:45.452Z,80.80
2022-09-25T13:04:55.451Z,79.90
2022-09-25T13:07:53.980Z,82.60
2022-09-25T13:10:41.859Z,78.90
2022-09-25T13:13:21.036Z,82.20
2022-09-25T13:15:57.245Z,80.40
2022-09-25T13:18:26.872Z,82.30
2022-09-25T13:20:58.567Z,82.00
2022-09-25T13:23:30.105Z,79.90
2022-09-25T13:26:18.669Z,80.50
2022-09-25T13:29:13.436Z,81.90
2022-09-25T13:31:44.745Z,80.80
2022-09-25T13:34:14.777Z,80.80
2022-09-25T13:36:49.075Z,80.60
2022-09-25T13:39:40.125Z,80.00
2022-09-25T13:42:27.796Z,79.90
2022-09-25T13:45:07.597Z,79.90
2022-09-25T13:47:38.231Z,79.60
2022-09-25T13:50:12.311Z,81.90
2022-09-25T13:52:39.594Z,80.50
2022-09-25T13:55:24.163Z,81.60
2022-09-25T13:58:00.148Z,79.50
2022-09-25T14:00:53.516Z,80.10
2022-09-25T14:03:44.585Z,81.70
2022-09-25T14:06:23.524Z,79.60
2022-09-25T14:08:53.243Z,79.10
2022-09-25T14:11:26.940Z,79.30
2022-09-25T14:13:56.754Z,79.40
2022-09-25T14:16:33.349Z,80.60
2022-09-25T14:19:04.786Z,78.50
2022-09-25T14:21:34.429Z,77.80
2022-09-25T14:24:34.473Z,79.80
2022-09-25T14:27:01.970Z,79.60
2022-09-25T14:29:38.608Z,79.50
2022-09-25T14:32:54.689Z,78.80
2022-09-25T14:35:53.810Z,80.70
2022-09-25T14:39:00.229Z,79.10
2022-09-25T14:42:17.189Z,80.60
2022-09-25T14:45:25.750Z,79.40
2022-09-25T14:47:59.642Z,78.10
2022-09-25T14:50:30.742Z,79.20
2022-09-25T14:53:08.233Z,78.30
2022-09-25T14:55:41.263Z,78.70
2022-09-25T14:58:13.507Z,78.30
2022-09-25T15:00:50.540Z,80.30
2022-09-25T15:03:21.581Z,78.30
2022-09-25T15:05:50.162Z,78.00
2022-09-25T15:08:43.333Z,80.20
2022-09-25T15:11:13.917Z,79.40
2022-09-25T15:13:41.001Z,78.70
2022-09-25T15:16:35.348Z,79.20
2022-09-25T15:19:08.134Z,80.60
2022-09-25T15:21:37.005Z,79.20
2022-09-25T15:24:10.285Z,78.30
2022-09-25T15:26:44.233Z,79.10
2022-09-25T15:29:21.317Z,78.50
2022-09-25T15:31:53.423Z,78.60
2022-09-25T15:34:23.789Z,78.70
2022-09-25T15:36:54.092Z,79.40
2022-09-25T15:39:26.010Z,78.50
2022-09-25T15:41:52.982Z,78.20
2022-09-25T15:44:26.490Z,78.40
2022-09-25T15:46:59.031Z,78.20
2022-09-25T15:49:25.873Z,78.00
2022-09-25T15:52:00.284Z,78.80
2022-09-25T15:54:33.949Z,78.90
2022-09-25T15:57:03.536Z,78.90
2022-09-25T16:00:03.362Z,79.40
2022-09-25T16:02:56.507Z,80.40
2022-09-25T16:05:32.918Z,79.80
2022-09-25T16:08:29.980Z,80.00
2022-09-25T16:11:09.378Z,80.50
2022-09-25T16:13:40.949Z,80.30
2022-09-25T16:16:28.291Z,81.00
2022-09-25T16:18:57.308Z,80.90
2022-09-25T16:21:29.536Z,81.10
2022-09-25T16:23:58.214Z,81.00
2022-09-25T16:26:29.849Z,81.30
2022-09-25T16:29:03.065Z,81.20
2022-09-25T16:31:31.379Z,80.80
2022-09-25T16:34:00.476Z,81.00
2022-09-25T16:36:36.844Z,81.30
2022-09-25T16:39:09.485Z,81.50
2022-09-25T16:41:38.732Z,81.50
2022-09-25T16:44:17.754Z,81.80
2022-09-25T16:46:56.870Z,81.30
2022-09-25T16:49:24.919Z,81.00
2022-09-25T16:51:54.130Z,82.30
2022-09-25T16:54:22.560Z,81.50
2022-09-25T16:56:49.485Z,82.40
2022-09-25T16:59:24.263Z,81.70
2022-09-25T17:01:54.426Z,82.40
2022-09-25T17:04:28.025Z,82.80
2022-09-25T17:06:58.138Z,82.60
2022-09-25T17:09:26.313Z,82.60
2022-09-25T17:12:01.710Z,83.10
2022-09-25T17:14:31.467Z,83.30
2022-09-25T17:16:59.058Z,83.50
2022-09-25T17:19:26.549Z,83.60
2022-09-25T17:21:56.059Z,83.90
2022-09-25T17:24:26.811Z,83.90
2022-09-25T17:26:54.538Z,84.00
2022-09-25T17:29:21.857Z,83.90
2022-09-25T17:31:48.828Z,84.00
2022-09-25T17:34:24.633Z,84.40
2022-09-25T17:36:51.931Z,84.60
2022-09-25T17:39:19.157Z,85.40
2022-09-25T17:41:46.261Z,85.50
2022-09-25T17:44:21.766Z,86.50
2022-09-25T17:46:49.836Z,86.60
2022-09-25T17:49:17.233Z,86.90
2022-09-25T17:51:44.734Z,86.90
2022-09-25T17:54:13.330Z,87.20
2022-09-25T17:56:42.553Z,87.60
2022-09-25T17:59:09.666Z,87.90
2022-09-25T18:01:39.669Z,87.80
2022-09-25T18:04:27.120Z,88.00
2022-09-25T18:06:53.973Z,88.10
2022-09-25T18:09:21.292Z,88.30
2022-09-25T18:11:48.120Z,88.30
2022-09-25T18:14:16.252Z,88.40
2022-09-25T18:16:44.395Z,88.40
2022-09-25T18:19:35.925Z,88.60
2022-09-25T18:22:23.979Z,88.90
2022-09-25T18:24:52.790Z,89.20
2022-09-25T18:27:20.306Z,89.50
2022-09-25T18:29:47.382Z,89.40
2022-09-25T18:32:15.068Z,90.00
2022-09-25T18:34:42.548Z,90.20
2022-09-25T18:37:09.890Z,90.20
2022-09-25T18:39:37.267Z,90.10
2022-09-25T18:42:04.295Z,90.20
2022-09-25T18:44:38.534Z,90.00
2022-09-25T18:47:08.530Z,90.30
2022-09-25T18:49:37.433Z,90.20
2022-09-25T18:52:04.253Z,90.10
2022-09-25T18:54:31.088Z,90.20
2022-09-25T18:57:03.110Z,90.20
2022-09-25T18:59:30.461Z,90.20
2022-09-25T19:01:57.301Z,90.40
2022-09-25T19:04:25.763Z,90.60
2022-09-25T19:06:52.965Z,90.30
2022-09-25T19:09:24.460Z,90.20
2022-09-25T19:11:51.850Z,90.30
2022-09-25T19:14:19.895Z,90.40
2022-09-25T19:16:52.476Z,90.80
2022-09-25T19:19:19.496Z,91.10
2022-09-25T19:21:46.355Z,90.90
2022-09-25T19:24:13.367Z,90.80
2022-09-25T19:26:41.609Z,90.70
2022-09-25T19:29:08.718Z,90.70
2022-09-25T19:31:35.913Z,90.60
2022-09-25T19:34:03.421Z,90.70
2022-09-25T19:36:32.663Z,90.70
2022-09-25T19:39:00.961Z,90.60
2022-09-25T19:41:30.458Z,90.50
2022-09-25T19:44:02.523Z,90.70
2022-09-25T19:46:29.961Z,90.60
2022-09-25T19:48:59.863Z,90.60
2022-09-25T19:51:26.985Z,90.90
2022-09-25T19:53:54.205Z,91.20
2022-09-25T19:56:21.268Z,91.10
2022-09-25T19:58:50.702Z,91.40
2022-09-25T20:01:23.024Z,91.40
2022-09-25T20:03:50.283Z,91.40
2022-09-25T20:06:17.626Z,91.50
2022-09-25T20:08:44.822Z,91.40
2022-09-25T20:11:22.537Z,91.40
2022-09-25T20:13:51.221Z,91.40
2022-09-25T20:16:20.325Z,91.40
2022-09-25T20:18:49.055Z,91.50
2022-09-25T20:21:17.613Z,91.50
2022-09-25T20:23:44.610Z,91.60
2022-09-25T20:26:15.650Z,91.50
2022-09-25T20:28:43.702Z,91.60
2022-09-25T20:31:13.950Z,91.80
2022-09-25T20:33:44.863Z,92.20
2022-09-25T20:36:13.924Z,92.00
2022-09-25T20:38:41.026Z,92.20
2022-09-25T20:41:11.339Z,92.20
2022-09-25T20:43:38.815Z,92.40
2022-09-25T20:46:08.479Z,92.80
2022-09-25T20:48:37.883Z,92.80
2022-09-25T20:51:06.444Z,92.70
2022-09-25T20:53:33.276Z,92.60
2022-09-25T20:56:07.775Z,92.60
2022-09-25T20:58:36.345Z,92.60
2022-09-25T21:01:09.020Z,92.50
2022-09-25T21:03:38.228Z,92.70
2022-09-25T21:06:08.324Z,92.60
2022-09-25T21:08:35.301Z,92.50
2022-09-25T21:11:02.497Z,92.90
2022-09-25T21:13:30.348Z,92.90
2022-09-25T21:16:14.432Z,93.20
2022-09-25T21:18:42.196Z,93.30
2022-09-25T21:21:14.979Z,93.40
2022-09-25T21:23:43.556Z,93.60
2022-09-25T21:26:16.749Z,93.80
2022-09-25T21:28:51.007Z,93.90
2022-09-25T21:31:20.437Z,93.80
2022-09-25T21:33:47.789Z,93.90
